sensor_id;sensor_type;location;lat;lon;timestamp;temperature;humidity
1205;DHT22;592;48.764;9.174;2023-02-28T00:00:55;-1.40;99.90
1205;DHT22;592;48.764;9.174;2023-02-28T00:03:21;-1.40;99.90
1205;DHT22;592;48.764;9.174;2023-02-28T00:05:48;-1.40;99.90
1205;DHT22;592;48.764;9.174;2023-02-28T00:08:15;-1.40;99.90
1205;DHT22;592;48.764;9.174;2023-02-28T00:10:41;-1.50;99.90
1205;DHT22;592;48.764;9.174;2023-02-28T00:13:08;-1.50;99.90
1205;DHT22;592;48.764;9.174;2023-02-28T00:15:37;-1.40;99.90
1205;DHT22;592;48.764;9.174;2023-02-28T00:18:04;-1.40;99.90
1205;DHT22;592;48.764;9.174;2023-02-28T00:20:31;-1.40;99.90
1205;DHT22;592;48.764;9.174;2023-02-28T00:22:57;-1.40;99.90
1205;DHT22;592;48.764;9.174;2023-02-28T00:25:25;-1.40;99.90
1205;DHT22;592;48.764;9.174;2023-02-28T00:27:52;-1.40;99.90
1205;DHT22;592;48.764;9.174;2023-02-28T00:30:20;-1.40;99.90
1205;DHT22;592;48.764;9.174;2023-02-28T00:32:49;-1.50;99.90
1205;DHT22;592;48.764;9.174;2023-02-28T00:35:16;-1.50;99.90
1205;DHT22;592;48.764;9.174;2023-02-28T00:37:43;-1.50;99.90
1205;DHT22;592;48.764;9.174;2023-02-28T00:40:10;-1.50;99.90
1205;DHT22;592;48.764;9.174;2023-02-28T00:42:38;-1.50;99.90
1205;DHT22;592;48.764;9.174;2023-02-28T00:45:06;-1.50;99.90
1205;DHT22;592;48.764;9.174;2023-02-28T00:47:33;-1.50;99.90
1205;DHT22;592;48.764;9.174;2023-02-28T00:50:01;-1.60;99.90
1205;DHT22;592;48.764;9.174;2023-02-28T00:52:28;-1.60;99.90
1205;DHT22;592;48.764;9.174;2023-02-28T00:54:55;-1.60;99.90
1205;DHT22;592;48.764;9.174;2023-02-28T00:57:22;-1.60;99.90
1205;DHT22;592;48.764;9.174;2023-02-28T00:59:48;-1.60;99.90
1205;DHT22;592;48.764;9.174;2023-02-28T01:02:16;-1.70;99.90
1205;DHT22;592;48.764;9.174;2023-02-28T01:04:43;-1.70;99.90
1205;DHT22;592;48.764;9.174;2023-02-28T01:07:11;-1.70;99.90
1205;DHT22;592;48.764;9.174;2023-02-28T01:09:39;-1.70;99.90
1205;DHT22;592;48.764;9.174;2023-02-28T01:12:07;-1.60;99.90
1205;DHT22;592;48.764;9.174;2023-02-28T01:14:34;-1.60;99.90
1205;DHT22;592;48.764;9.174;2023-02-28T01:17:01;-1.60;99.90
1205;DHT22;592;48.764;9.174;2023-02-28T01:19:28;-1.60;99.90
1205;DHT22;592;48.764;9.174;2023-02-28T01:21:54;-1.60;99.90
1205;DHT22;592;48.764;9.174;2023-02-28T01:24:22;-1.60;99.90
1205;DHT22;592;48.764;9.174;2023-02-28T01:26:49;-1.60;99.90
1205;DHT22;592;48.764;9.174;2023-02-28T01:29:16;-1.70;99.90
1205;DHT22;592;48.764;9.174;2023-02-28T01:31:42;-1.70;99.90
1205;DHT22;592;48.764;9.174;2023-02-28T01:34:09;-1.80;99.90
1205;DHT22;592;48.764;9.174;2023-02-28T01:36:36;-1.80;99.90
1205;DHT22;592;48.764;9.174;2023-02-28T01:39:03;-1.80;99.90
1205;DHT22;592;48.764;9.174;2023-02-28T01:41:33;-1.80;99.90
1205;DHT22;592;48.764;9.174;2023-02-28T01:44:03;-1.70;99.90
1205;DHT22;592;48.764;9.174;2023-02-28T01:46:31;-1.80;99.90
1205;DHT22;592;48.764;9.174;2023-02-28T01:49:02;-1.90;99.90
1205;DHT22;592;48.764;9.174;2023-02-28T01:51:35;-1.90;99.90
1205;DHT22;592;48.764;9.174;2023-02-28T01:54:07;-1.90;99.90
1205;DHT22;592;48.764;9.174;2023-02-28T01:56:43;-1.90;99.90
1205;DHT22;592;48.764;9.174;2023-02-28T01:59:12;-1.90;99.90
1205;DHT22;592;48.764;9.174;2023-02-28T02:01:40;-1.90;99.90
1205;DHT22;592;48.764;9.174;2023-02-28T02:04:08;-2.00;99.90
1205;DHT22;592;48.764;9.174;2023-02-28T02:06:38;-2.00;99.90
1205;DHT22;592;48.764;9.174;2023-02-28T02:09:05;-2.50;99.90
1205;DHT22;592;48.764;9.174;2023-02-28T02:11:33;-2.00;99.90
1205;DHT22;592;48.764;9.174;2023-02-28T02:14:28;-1.90;99.90
1205;DHT22;592;48.764;9.174;2023-02-28T02:17:07;-2.00;99.90
1205;DHT22;592;48.764;9.174;2023-02-28T02:20:13;-2.00;99.90
1205;DHT22;592;48.764;9.174;2023-02-28T02:25:54;-2.00;99.90
1205;DHT22;592;48.764;9.174;2023-02-28T02:32:02;-1.90;99.90
1205;DHT22;592;48.764;9.174;2023-02-28T02:34:48;-2.00;99.90
1205;DHT22;592;48.764;9.174;2023-02-28T02:37:25;-2.00;99.90
1205;DHT22;592;48.764;9.174;2023-02-28T02:40:03;-1.90;99.90
1205;DHT22;592;48.764;9.174;2023-02-28T02:42:35;-1.90;99.90
1205;DHT22;592;48.764;9.174;2023-02-28T02:45:09;-1.90;99.90
1205;DHT22;592;48.764;9.174;2023-02-28T02:47:39;-1.90;99.90
1205;DHT22;592;48.764;9.174;2023-02-28T02:50:12;-1.80;99.90
1205;DHT22;592;48.764;9.174;2023-02-28T02:52:44;-1.80;99.90
1205;DHT22;592;48.764;9.174;2023-02-28T02:55:13;-1.80;99.90
1205;DHT22;592;48.764;9.174;2023-02-28T02:57:45;-1.90;99.90
1205;DHT22;592;48.764;9.174;2023-02-28T03:00:15;-1.90;99.90
1205;DHT22;592;48.764;9.174;2023-02-28T03:02:44;-1.90;99.90
1205;DHT22;592;48.764;9.174;2023-02-28T03:05:18;-1.80;99.90
1205;DHT22;592;48.764;9.174;2023-02-28T03:07:45;-1.80;99.90
1205;DHT22;592;48.764;9.174;2023-02-28T03:10:34;-1.80;99.90
1205;DHT22;592;48.764;9.174;2023-02-28T03:13:11;-1.70;99.90
1205;DHT22;592;48.764;9.174;2023-02-28T03:15:43;-1.70;99.90
1205;DHT22;592;48.764;9.174;2023-02-28T03:18:21;-1.60;99.90
1205;DHT22;592;48.764;9.174;2023-02-28T03:21:00;-1.60;99.90
1205;DHT22;592;48.764;9.174;2023-02-28T03:23:35;-1.60;99.90
1205;DHT22;592;48.764;9.174;2023-02-28T03:26:07;-1.60;99.90
1205;DHT22;592;48.764;9.174;2023-02-28T03:28:41;-1.60;99.90
1205;DHT22;592;48.764;9.174;2023-02-28T03:31:16;-1.60;99.90
1205;DHT22;592;48.764;9.174;2023-02-28T03:33:48;-1.60;99.90
1205;DHT22;592;48.764;9.174;2023-02-28T03:36:24;-1.60;99.90
1205;DHT22;592;48.764;9.174;2023-02-28T03:38:58;-1.60;99.90
1205;DHT22;592;48.764;9.174;2023-02-28T03:41:31;-1.70;99.90
1205;DHT22;592;48.764;9.174;2023-02-28T03:44:02;-1.70;99.90
1205;DHT22;592;48.764;9.174;2023-02-28T03:46:35;-1.70;99.90
1205;DHT22;592;48.764;9.174;2023-02-28T03:49:08;-1.60;99.90
1205;DHT22;592;48.764;9.174;2023-02-28T03:51:40;-1.50;99.90
1205;DHT22;592;48.764;9.174;2023-02-28T03:54:11;-1.50;99.90
1205;DHT22;592;48.764;9.174;2023-02-28T03:56:43;-1.50;99.90
1205;DHT22;592;48.764;9.174;2023-02-28T03:59:16;-1.50;99.90
1205;DHT22;592;48.764;9.174;2023-02-28T04:01:47;-1.50;99.90
1205;DHT22;592;48.764;9.174;2023-02-28T04:04:15;-1.60;99.90
1205;DHT22;592;48.764;9.174;2023-02-28T04:06:44;-1.60;99.90
1205;DHT22;592;48.764;9.174;2023-02-28T04:09:13;-1.60;99.90
1205;DHT22;592;48.764;9.174;2023-02-28T04:11:42;-1.50;99.90
1205;DHT22;592;48.764;9.174;2023-02-28T04:14:10;-1.50;99.90
1205;DHT22;592;48.764;9.174;2023-02-28T04:16:39;-1.50;99.90
1205;DHT22;592;48.764;9.174;2023-02-28T04:19:08;-1.40;99.90
1205;DHT22;592;48.764;9.174;2023-02-28T04:21:37;-1.40;99.90
1205;DHT22;592;48.764;9.174;2023-02-28T04:24:06;-1.50;99.90
1205;DHT22;592;48.764;9.174;2023-02-28T04:26:35;-1.50;99.90
1205;DHT22;592;48.764;9.174;2023-02-28T04:29:03;-1.50;99.90
1205;DHT22;592;48.764;9.174;2023-02-28T04:31:30;-1.50;99.90
1205;DHT22;592;48.764;9.174;2023-02-28T04:33:57;-1.50;99.90
1205;DHT22;592;48.764;9.174;2023-02-28T04:36:24;-1.50;99.90
1205;DHT22;592;48.764;9.174;2023-02-28T04:38:52;-1.50;99.90
1205;DHT22;592;48.764;9.174;2023-02-28T04:41:21;-1.50;99.90
1205;DHT22;592;48.764;9.174;2023-02-28T04:43:48;-1.50;99.90
1205;DHT22;592;48.764;9.174;2023-02-28T04:46:15;-1.50;99.90
1205;DHT22;592;48.764;9.174;2023-02-28T04:48:42;-1.50;99.90
1205;DHT22;592;48.764;9.174;2023-02-28T04:51:12;-1.50;99.90
1205;DHT22;592;48.764;9.174;2023-02-28T04:53:40;-1.40;99.90
1205;DHT22;592;48.764;9.174;2023-02-28T04:56:09;-1.50;99.90
1205;DHT22;592;48.764;9.174;2023-02-28T04:58:39;-1.40;99.90
1205;DHT22;592;48.764;9.174;2023-02-28T05:01:18;-1.40;99.90
1205;DHT22;592;48.764;9.174;2023-02-28T05:03:45;-1.50;99.90
1205;DHT22;592;48.764;9.174;2023-02-28T05:06:12;-1.40;99.90
1205;DHT22;592;48.764;9.174;2023-02-28T05:08:40;-1.50;99.90
1205;DHT22;592;48.764;9.174;2023-02-28T05:11:19;-1.40;99.90
1205;DHT22;592;48.764;9.174;2023-02-28T05:13:48;-1.40;99.90
1205;DHT22;592;48.764;9.174;2023-02-28T05:16:15;-1.40;99.90
1205;DHT22;592;48.764;9.174;2023-02-28T05:18:42;-1.40;99.90
1205;DHT22;592;48.764;9.174;2023-02-28T05:21:23;-1.50;99.90
1205;DHT22;592;48.764;9.174;2023-02-28T05:23:50;-1.50;99.90
1205;DHT22;592;48.764;9.174;2023-02-28T05:26:17;-1.50;99.90
1205;DHT22;592;48.764;9.174;2023-02-28T05:28:44;-1.50;99.90
1205;DHT22;592;48.764;9.174;2023-02-28T05:31:12;-1.50;99.90
1205;DHT22;592;48.764;9.174;2023-02-28T05:33:39;-1.50;99.90
1205;DHT22;592;48.764;9.174;2023-02-28T05:36:07;-1.50;99.90
1205;DHT22;592;48.764;9.174;2023-02-28T05:38:33;-1.60;99.90
1205;DHT22;592;48.764;9.174;2023-02-28T05:41:04;-1.60;99.90
1205;DHT22;592;48.764;9.174;2023-02-28T05:43:30;-1.50;99.90
1205;DHT22;592;48.764;9.174;2023-02-28T05:45:57;-1.50;99.90
1205;DHT22;592;48.764;9.174;2023-02-28T05:48:25;-1.50;99.90
1205;DHT22;592;48.764;9.174;2023-02-28T05:50:52;-1.40;99.90
1205;DHT22;592;48.764;9.174;2023-02-28T05:53:19;-1.40;99.90
1205;DHT22;592;48.764;9.174;2023-02-28T05:55:45;-1.00;99.90
1205;DHT22;592;48.764;9.174;2023-02-28T05:58:12;-1.30;99.90
1205;DHT22;592;48.764;9.174;2023-02-28T06:00:39;-1.30;99.90
1205;DHT22;592;48.764;9.174;2023-02-28T06:03:05;-1.40;99.90
1205;DHT22;592;48.764;9.174;2023-02-28T06:05:33;-1.40;99.90
1205;DHT22;592;48.764;9.174;2023-02-28T06:08:00;-1.50;99.90
1205;DHT22;592;48.764;9.174;2023-02-28T06:10:26;-1.40;99.90
1205;DHT22;592;48.764;9.174;2023-02-28T06:12:53;-1.40;99.90
1205;DHT22;592;48.764;9.174;2023-02-28T06:15:20;-1.50;99.90
1205;DHT22;592;48.764;9.174;2023-02-28T06:17:47;-1.40;99.90
1205;DHT22;592;48.764;9.174;2023-02-28T06:20:13;-1.40;99.90
1205;DHT22;592;48.764;9.174;2023-02-28T06:22:42;-1.40;99.90
1205;DHT22;592;48.764;9.174;2023-02-28T06:25:32;-1.40;99.90
1205;DHT22;592;48.764;9.174;2023-02-28T06:28:15;-1.30;99.90
1205;DHT22;592;48.764;9.174;2023-02-28T06:30:42;-1.30;99.90
1205;DHT22;592;48.764;9.174;2023-02-28T06:33:08;-1.30;99.90
1205;DHT22;592;48.764;9.174;2023-02-28T06:35:35;-1.30;99.90
1205;DHT22;592;48.764;9.174;2023-02-28T06:38:03;-1.30;99.90
1205;DHT22;592;48.764;9.174;2023-02-28T06:40:30;-1.30;99.90
1205;DHT22;592;48.764;9.174;2023-02-28T06:42:59;-1.20;99.90
1205;DHT22;592;48.764;9.174;2023-02-28T06:45:26;-1.20;99.90
1205;DHT22;592;48.764;9.174;2023-02-28T06:47:53;-1.20;99.90
1205;DHT22;592;48.764;9.174;2023-02-28T06:50:19;-1.20;99.90
1205;DHT22;592;48.764;9.174;2023-02-28T06:52:47;-1.20;99.90
1205;DHT22;592;48.764;9.174;2023-02-28T06:55:15;-1.20;99.90
1205;DHT22;592;48.764;9.174;2023-02-28T06:57:42;-1.10;99.90
1205;DHT22;592;48.764;9.174;2023-02-28T07:00:10;-1.10;99.90
1205;DHT22;592;48.764;9.174;2023-02-28T07:02:37;-1.10;99.90
1205;DHT22;592;48.764;9.174;2023-02-28T07:05:05;-1.10;99.90
1205;DHT22;592;48.764;9.174;2023-02-28T07:07:32;-1.00;99.90
1205;DHT22;592;48.764;9.174;2023-02-28T07:09:58;-1.00;99.90
1205;DHT22;592;48.764;9.174;2023-02-28T07:12:26;-0.90;99.90
1205;DHT22;592;48.764;9.174;2023-02-28T07:14:53;-0.90;99.90
1205;DHT22;592;48.764;9.174;2023-02-28T07:17:21;-0.80;99.90
1205;DHT22;592;48.764;9.174;2023-02-28T07:19:48;-0.80;99.90
1205;DHT22;592;48.764;9.174;2023-02-28T07:22:14;-0.80;99.90
1205;DHT22;592;48.764;9.174;2023-02-28T07:24:41;-0.80;99.90
1205;DHT22;592;48.764;9.174;2023-02-28T07:27:08;-0.70;99.90
1205;DHT22;592;48.764;9.174;2023-02-28T07:29:36;-0.70;99.90
1205;DHT22;592;48.764;9.174;2023-02-28T07:32:04;-0.70;99.90
1205;DHT22;592;48.764;9.174;2023-02-28T07:34:30;-0.70;99.90
1205;DHT22;592;48.764;9.174;2023-02-28T07:36:57;-0.70;99.90
1205;DHT22;592;48.764;9.174;2023-02-28T07:39:24;-0.60;99.90
1205;DHT22;592;48.764;9.174;2023-02-28T07:41:50;-0.60;99.90
1205;DHT22;592;48.764;9.174;2023-02-28T07:46:58;-0.10;99.90
1205;DHT22;592;48.764;9.174;2023-02-28T07:49:24;0.00;99.90
1205;DHT22;592;48.764;9.174;2023-02-28T07:51:51;-0.20;99.90
1205;DHT22;592;48.764;9.174;2023-02-28T07:54:18;-0.50;99.90
1205;DHT22;592;48.764;9.174;2023-02-28T07:56:45;-0.60;99.90
1205;DHT22;592;48.764;9.174;2023-02-28T07:59:11;-0.50;99.90
1205;DHT22;592;48.764;9.174;2023-02-28T08:01:38;-0.50;99.90
1205;DHT22;592;48.764;9.174;2023-02-28T08:04:06;-0.50;99.90
1205;DHT22;592;48.764;9.174;2023-02-28T08:06:33;-0.50;99.90
1205;DHT22;592;48.764;9.174;2023-02-28T08:08:59;-0.50;99.90
1205;DHT22;592;48.764;9.174;2023-02-28T08:11:26;-0.50;99.90
1205;DHT22;592;48.764;9.174;2023-02-28T08:13:54;-0.50;99.90
1205;DHT22;592;48.764;9.174;2023-02-28T08:16:21;-0.60;99.90
1205;DHT22;592;48.764;9.174;2023-02-28T08:18:48;-0.50;99.90
1205;DHT22;592;48.764;9.174;2023-02-28T08:21:17;-0.50;99.90
1205;DHT22;592;48.764;9.174;2023-02-28T08:23:45;-0.40;99.90
1205;DHT22;592;48.764;9.174;2023-02-28T08:26:12;-0.40;99.90
1205;DHT22;592;48.764;9.174;2023-02-28T08:28:39;-0.40;99.90
1205;DHT22;592;48.764;9.174;2023-02-28T08:31:10;-0.40;99.90
1205;DHT22;592;48.764;9.174;2023-02-28T08:33:37;-0.40;99.90
1205;DHT22;592;48.764;9.174;2023-02-28T08:36:06;-0.30;99.90
1205;DHT22;592;48.764;9.174;2023-02-28T08:38:35;-0.40;99.90
1205;DHT22;592;48.764;9.174;2023-02-28T08:41:04;-0.40;99.90
1205;DHT22;592;48.764;9.174;2023-02-28T08:43:32;-0.40;99.90
1205;DHT22;592;48.764;9.174;2023-02-28T08:45:59;-0.40;99.90
1205;DHT22;592;48.764;9.174;2023-02-28T08:48:27;-0.40;99.90
1205;DHT22;592;48.764;9.174;2023-02-28T08:50:55;-0.40;99.90
1205;DHT22;592;48.764;9.174;2023-02-28T08:53:22;-0.50;99.90
1205;DHT22;592;48.764;9.174;2023-02-28T08:55:57;-0.40;99.90
1205;DHT22;592;48.764;9.174;2023-02-28T08:58:23;-0.40;99.90
1205;DHT22;592;48.764;9.174;2023-02-28T09:00:50;-0.30;99.90
1205;DHT22;592;48.764;9.174;2023-02-28T09:03:17;-0.20;99.90
1205;DHT22;592;48.764;9.174;2023-02-28T09:05:52;-0.20;99.90
1205;DHT22;592;48.764;9.174;2023-02-28T09:08:19;-0.20;99.90
1205;DHT22;592;48.764;9.174;2023-02-28T09:10:45;-0.20;99.90
1205;DHT22;592;48.764;9.174;2023-02-28T09:13:13;-0.30;99.90
1205;DHT22;592;48.764;9.174;2023-02-28T09:15:40;-0.20;99.90
1205;DHT22;592;48.764;9.174;2023-02-28T09:18:07;-0.10;99.90
1205;DHT22;592;48.764;9.174;2023-02-28T09:20:37;-0.10;99.90
1205;DHT22;592;48.764;9.174;2023-02-28T09:23:04;0.00;99.90
1205;DHT22;592;48.764;9.174;2023-02-28T09:25:30;0.00;99.90
1205;DHT22;592;48.764;9.174;2023-02-28T09:27:57;0.10;99.90
1205;DHT22;592;48.764;9.174;2023-02-28T09:30:25;0.10;99.90
1205;DHT22;592;48.764;9.174;2023-02-28T09:32:52;0.20;99.90
1205;DHT22;592;48.764;9.174;2023-02-28T09:35:19;0.00;99.90
1205;DHT22;592;48.764;9.174;2023-02-28T09:37:46;0.10;99.90
1205;DHT22;592;48.764;9.174;2023-02-28T09:40:14;0.20;99.90
1205;DHT22;592;48.764;9.174;2023-02-28T09:42:45;0.20;99.90
1205;DHT22;592;48.764;9.174;2023-02-28T09:45:21;0.30;99.90
1205;DHT22;592;48.764;9.174;2023-02-28T09:47:52;0.30;99.90
1205;DHT22;592;48.764;9.174;2023-02-28T09:50:28;0.40;99.90
1205;DHT22;592;48.764;9.174;2023-02-28T09:52:59;0.30;99.90
1205;DHT22;592;48.764;9.174;2023-02-28T09:55:30;0.40;99.90
1205;DHT22;592;48.764;9.174;2023-02-28T09:58:00;0.50;99.90
1205;DHT22;592;48.764;9.174;2023-02-28T10:00:32;0.60;99.90
1205;DHT22;592;48.764;9.174;2023-02-28T10:03:13;0.60;99.90
1205;DHT22;592;48.764;9.174;2023-02-28T10:05:51;0.60;99.90
1205;DHT22;592;48.764;9.174;2023-02-28T10:08:22;0.70;99.90
1205;DHT22;592;48.764;9.174;2023-02-28T10:10:54;0.70;99.90
1205;DHT22;592;48.764;9.174;2023-02-28T10:13:25;0.70;99.90
1205;DHT22;592;48.764;9.174;2023-02-28T10:15:57;0.70;99.90
1205;DHT22;592;48.764;9.174;2023-02-28T10:18:38;0.80;99.90
1205;DHT22;592;48.764;9.174;2023-02-28T10:21:08;0.70;99.90
1205;DHT22;592;48.764;9.174;2023-02-28T10:23:39;0.70;99.90
1205;DHT22;592;48.764;9.174;2023-02-28T10:26:12;0.80;99.90
1205;DHT22;592;48.764;9.174;2023-02-28T10:28:41;0.80;99.90
1205;DHT22;592;48.764;9.174;2023-02-28T10:31:11;0.90;99.90
1205;DHT22;592;48.764;9.174;2023-02-28T10:33:43;0.90;99.90
1205;DHT22;592;48.764;9.174;2023-02-28T10:36:14;1.00;99.90
1205;DHT22;592;48.764;9.174;2023-02-28T10:38:42;1.00;99.90
1205;DHT22;592;48.764;9.174;2023-02-28T10:41:11;1.10;99.90
1205;DHT22;592;48.764;9.174;2023-02-28T10:43:40;1.20;99.90
1205;DHT22;592;48.764;9.174;2023-02-28T10:46:13;1.30;99.90
1205;DHT22;592;48.764;9.174;2023-02-28T10:49:01;1.40;99.90
1205;DHT22;592;48.764;9.174;2023-02-28T10:51:36;1.50;99.90
1205;DHT22;592;48.764;9.174;2023-02-28T10:54:04;1.60;99.90
1205;DHT22;592;48.764;9.174;2023-02-28T10:56:31;1.60;99.90
1205;DHT22;592;48.764;9.174;2023-02-28T10:59:00;1.50;99.90
1205;DHT22;592;48.764;9.174;2023-02-28T11:01:36;1.60;99.90
1205;DHT22;592;48.764;9.174;2023-02-28T11:04:17;1.50;99.90
1205;DHT22;592;48.764;9.174;2023-02-28T11:06:44;1.60;99.90
1205;DHT22;592;48.764;9.174;2023-02-28T11:09:19;1.70;99.90
1205;DHT22;592;48.764;9.174;2023-02-28T11:11:49;1.70;99.90
1205;DHT22;592;48.764;9.174;2023-02-28T11:14:20;1.50;99.90
1205;DHT22;592;48.764;9.174;2023-02-28T11:16:47;1.50;99.90
1205;DHT22;592;48.764;9.174;2023-02-28T11:19:20;1.50;99.90
1205;DHT22;592;48.764;9.174;2023-02-28T11:21:53;1.50;99.90
1205;DHT22;592;48.764;9.174;2023-02-28T11:24:24;1.50;99.90
1205;DHT22;592;48.764;9.174;2023-02-28T11:26:52;1.40;99.90
1205;DHT22;592;48.764;9.174;2023-02-28T11:29:20;1.60;99.90
1205;DHT22;592;48.764;9.174;2023-02-28T11:32:03;1.70;99.90
1205;DHT22;592;48.764;9.174;2023-02-28T11:34:32;1.80;99.90
1205;DHT22;592;48.764;9.174;2023-02-28T11:36:59;2.00;99.90
1205;DHT22;592;48.764;9.174;2023-02-28T11:39:30;1.90;99.90
1205;DHT22;592;48.764;9.174;2023-02-28T11:42:09;2.00;99.90
1205;DHT22;592;48.764;9.174;2023-02-28T11:44:54;2.00;99.90
1205;DHT22;592;48.764;9.174;2023-02-28T11:47:31;2.10;99.90
1205;DHT22;592;48.764;9.174;2023-02-28T11:50:16;2.20;99.90
1205;DHT22;592;48.764;9.174;2023-02-28T11:52:52;2.20;99.90
1205;DHT22;592;48.764;9.174;2023-02-28T11:55:24;2.20;99.90
1205;DHT22;592;48.764;9.174;2023-02-28T11:58:16;2.10;99.90
1205;DHT22;592;48.764;9.174;2023-02-28T12:01:03;2.20;99.90
1205;DHT22;592;48.764;9.174;2023-02-28T12:03:43;2.50;99.90
1205;DHT22;592;48.764;9.174;2023-02-28T12:06:20;2.60;99.90
1205;DHT22;592;48.764;9.174;2023-02-28T12:08:57;2.60;99.90
1205;DHT22;592;48.764;9.174;2023-02-28T12:11:36;2.40;99.90
1205;DHT22;592;48.764;9.174;2023-02-28T12:14:34;2.60;99.90
1205;DHT22;592;48.764;9.174;2023-02-28T12:17:13;2.60;99.90
1205;DHT22;592;48.764;9.174;2023-02-28T12:19:50;2.70;99.90
1205;DHT22;592;48.764;9.174;2023-02-28T12:22:31;2.80;99.90
1205;DHT22;592;48.764;9.174;2023-02-28T12:25:22;2.70;99.90
1205;DHT22;592;48.764;9.174;2023-02-28T12:27:51;2.70;99.90
1205;DHT22;592;48.764;9.174;2023-02-28T12:30:22;2.80;99.90
1205;DHT22;592;48.764;9.174;2023-02-28T12:32:54;2.80;99.90
1205;DHT22;592;48.764;9.174;2023-02-28T12:35:24;2.90;99.90
1205;DHT22;592;48.764;9.174;2023-02-28T12:37:56;2.90;99.90
1205;DHT22;592;48.764;9.174;2023-02-28T12:40:27;2.90;99.90
1205;DHT22;592;48.764;9.174;2023-02-28T12:42:58;2.90;99.90
1205;DHT22;592;48.764;9.174;2023-02-28T12:45:29;2.80;99.90
1205;DHT22;592;48.764;9.174;2023-02-28T12:48:00;2.90;99.90
1205;DHT22;592;48.764;9.174;2023-02-28T12:50:29;3.00;99.90
1205;DHT22;592;48.764;9.174;2023-02-28T12:53:02;3.10;99.90
1205;DHT22;592;48.764;9.174;2023-02-28T12:55:35;3.10;99.90
1205;DHT22;592;48.764;9.174;2023-02-28T12:58:11;3.10;99.90
1205;DHT22;592;48.764;9.174;2023-02-28T13:00:53;3.10;99.90
1205;DHT22;592;48.764;9.174;2023-02-28T13:03:36;3.10;99.90
1205;DHT22;592;48.764;9.174;2023-02-28T13:06:29;3.30;99.90
1205;DHT22;592;48.764;9.174;2023-02-28T13:09:08;3.30;99.90
1205;DHT22;592;48.764;9.174;2023-02-28T13:11:40;3.30;99.90
1205;DHT22;592;48.764;9.174;2023-02-28T13:14:20;3.30;99.90
1205;DHT22;592;48.764;9.174;2023-02-28T13:16:55;3.50;99.90
1205;DHT22;592;48.764;9.174;2023-02-28T13:19:24;3.50;99.90
1205;DHT22;592;48.764;9.174;2023-02-28T13:21:52;3.60;99.90
1205;DHT22;592;48.764;9.174;2023-02-28T13:24:42;3.60;99.90
1205;DHT22;592;48.764;9.174;2023-02-28T13:27:24;3.70;99.90
1205;DHT22;592;48.764;9.174;2023-02-28T13:32:34;3.90;99.90
1205;DHT22;592;48.764;9.174;2023-02-28T13:38:21;4.00;99.90
1205;DHT22;592;48.764;9.174;2023-02-28T13:40:50;4.00;99.90
1205;DHT22;592;48.764;9.174;2023-02-28T13:43:18;4.20;99.90
1205;DHT22;592;48.764;9.174;2023-02-28T13:46:07;4.00;99.90
1205;DHT22;592;48.764;9.174;2023-02-28T13:48:34;4.10;99.90
1205;DHT22;592;48.764;9.174;2023-02-28T13:51:35;4.00;99.90
1205;DHT22;592;48.764;9.174;2023-02-28T13:54:33;4.30;99.90
1205;DHT22;592;48.764;9.174;2023-02-28T13:57:30;4.70;99.60
1205;DHT22;592;48.764;9.174;2023-02-28T14:00:19;4.60;99.70
1205;DHT22;592;48.764;9.174;2023-02-28T14:05:23;4.70;99.40
1205;DHT22;592;48.764;9.174;2023-02-28T14:07:54;4.80;99.10
1205;DHT22;592;48.764;9.174;2023-02-28T14:10:26;5.10;99.50
1205;DHT22;592;48.764;9.174;2023-02-28T14:13:00;5.50;98.70
1205;DHT22;592;48.764;9.174;2023-02-28T14:15:54;5.30;98.20
1205;DHT22;592;48.764;9.174;2023-02-28T14:18:31;5.50;98.30
1205;DHT22;592;48.764;9.174;2023-02-28T14:21:02;5.80;98.20
1205;DHT22;592;48.764;9.174;2023-02-28T14:23:52;6.10;98.20
1205;DHT22;592;48.764;9.174;2023-02-28T14:26:32;6.30;97.30
1205;DHT22;592;48.764;9.174;2023-02-28T14:31:46;6.10;97.40
1205;DHT22;592;48.764;9.174;2023-02-28T14:34:26;6.30;97.60
1205;DHT22;592;48.764;9.174;2023-02-28T14:37:00;6.50;97.80
1205;DHT22;592;48.764;9.174;2023-02-28T14:39:28;6.20;96.70
1205;DHT22;592;48.764;9.174;2023-02-28T14:41:57;6.00;96.90
1205;DHT22;592;48.764;9.174;2023-02-28T14:44:29;5.80;97.20
1205;DHT22;592;48.764;9.174;2023-02-28T14:46:58;5.60;97.40
1205;DHT22;592;48.764;9.174;2023-02-28T14:49:30;6.00;97.80
1205;DHT22;592;48.764;9.174;2023-02-28T14:52:05;6.30;97.30
1205;DHT22;592;48.764;9.174;2023-02-28T14:54:35;6.30;97.00
1205;DHT22;592;48.764;9.174;2023-02-28T14:57:02;6.40;96.70
1205;DHT22;592;48.764;9.174;2023-02-28T14:59:32;6.20;96.70
1205;DHT22;592;48.764;9.174;2023-02-28T15:02:21;6.20;97.10
1205;DHT22;592;48.764;9.174;2023-02-28T15:04:59;6.50;97.40
1205;DHT22;592;48.764;9.174;2023-02-28T15:07:26;6.80;97.50
1205;DHT22;592;48.764;9.174;2023-02-28T15:10:10;6.80;96.60
1205;DHT22;592;48.764;9.174;2023-02-28T15:12:41;6.20;96.80
1205;DHT22;592;48.764;9.174;2023-02-28T15:15:15;6.10;96.60
1205;DHT22;592;48.764;9.174;2023-02-28T15:17:45;5.90;96.90
1205;DHT22;592;48.764;9.174;2023-02-28T15:20:14;6.00;97.00
1205;DHT22;592;48.764;9.174;2023-02-28T15:22:43;5.90;97.00
1205;DHT22;592;48.764;9.174;2023-02-28T15:25:20;5.50;97.50
1205;DHT22;592;48.764;9.174;2023-02-28T15:27:57;5.70;97.90
1205;DHT22;592;48.764;9.174;2023-02-28T15:30:29;5.60;97.70
1205;DHT22;592;48.764;9.174;2023-02-28T15:33:18;5.60;97.70
1205;DHT22;592;48.764;9.174;2023-02-28T15:35:45;5.30;97.60
1205;DHT22;592;48.764;9.174;2023-02-28T15:38:16;5.20;98.30
1205;DHT22;592;48.764;9.174;2023-02-28T15:40:44;5.20;98.30
1205;DHT22;592;48.764;9.174;2023-02-28T15:43:23;5.20;98.30
1205;DHT22;592;48.764;9.174;2023-02-28T15:45:52;5.20;98.40
1205;DHT22;592;48.764;9.174;2023-02-28T15:48:26;5.40;98.40
1205;DHT22;592;48.764;9.174;2023-02-28T15:50:54;5.30;98.30
1205;DHT22;592;48.764;9.174;2023-02-28T15:53:25;5.10;98.20
1205;DHT22;592;48.764;9.174;2023-02-28T15:55:55;5.10;98.50
1205;DHT22;592;48.764;9.174;2023-02-28T15:58:27;4.80;98.50
1205;DHT22;592;48.764;9.174;2023-02-28T16:01:07;4.70;98.90
1205;DHT22;592;48.764;9.174;2023-02-28T16:03:45;4.70;99.10
1205;DHT22;592;48.764;9.174;2023-02-28T16:06:38;4.60;99.00
1205;DHT22;592;48.764;9.174;2023-02-28T16:09:10;4.60;99.20
1205;DHT22;592;48.764;9.174;2023-02-28T16:11:43;4.50;99.40
1205;DHT22;592;48.764;9.174;2023-02-28T16:14:16;4.40;99.40
1205;DHT22;592;48.764;9.174;2023-02-28T16:16:45;4.40;99.60
1205;DHT22;592;48.764;9.174;2023-02-28T16:19:13;4.40;99.70
1205;DHT22;592;48.764;9.174;2023-02-28T16:21:40;4.40;99.90
1205;DHT22;592;48.764;9.174;2023-02-28T16:24:08;4.40;99.80
1205;DHT22;592;48.764;9.174;2023-02-28T16:29:13;5.10;99.90
1205;DHT22;592;48.764;9.174;2023-02-28T16:31:44;5.10;99.70
1205;DHT22;592;48.764;9.174;2023-02-28T16:34:13;4.60;99.20
1205;DHT22;592;48.764;9.174;2023-02-28T16:36:40;4.40;99.60
1205;DHT22;592;48.764;9.174;2023-02-28T16:39:07;4.30;99.90
1205;DHT22;592;48.764;9.174;2023-02-28T16:41:34;4.30;99.90
1205;DHT22;592;48.764;9.174;2023-02-28T16:44:04;4.20;99.90
1205;DHT22;592;48.764;9.174;2023-02-28T16:46:36;4.20;99.90
1205;DHT22;592;48.764;9.174;2023-02-28T16:49:03;4.10;99.90
1205;DHT22;592;48.764;9.174;2023-02-28T16:51:31;4.10;99.90
1205;DHT22;592;48.764;9.174;2023-02-28T16:53:58;4.00;99.90
1205;DHT22;592;48.764;9.174;2023-02-28T16:56:25;4.00;99.90
1205;DHT22;592;48.764;9.174;2023-02-28T16:58:57;4.00;99.90
1205;DHT22;592;48.764;9.174;2023-02-28T17:01:28;3.90;99.90
1205;DHT22;592;48.764;9.174;2023-02-28T17:03:55;3.90;99.90
1205;DHT22;592;48.764;9.174;2023-02-28T17:06:23;3.80;99.90
1205;DHT22;592;48.764;9.174;2023-02-28T17:08:52;3.70;99.90
1205;DHT22;592;48.764;9.174;2023-02-28T17:13:54;3.70;99.90
1205;DHT22;592;48.764;9.174;2023-02-28T17:16:25;3.50;99.90